Time;durP1;ratioP1;P1;durP2;ratioP2;P2;SDS_P1;SDS_P2;PMS_P1;PMS_P2;Temp;Humidity;BMP_temperature;BMP_pressure;BME280_temperature;BME280_humidity;BME280_pressure;Samples;Min_cycle;Max_cycle;Signal;HPM_P1;HPM_P2
2022/03/13 00:00:23;;;;;;;24.75;15.48;;;1.30;77.00;;;;;;5023460;28;20045;-72
2022/03/13 00:02:55;;;;;;;26.85;15.30;;;0.90;78.80;;;;;;5022960;28;20392;-74
2022/03/13 00:05:23;;;;;;;33.47;17.88;;;0.80;80.10;;;;;;5019050;28;20045;-72
2022/03/13 00:07:54;;;;;;;30.17;18.23;;;0.80;82.40;;;;;;5005626;28;20029;-73
2022/03/13 00:10:27;;;;;;;36.65;21.60;;;0.50;85.40;;;;;;5021662;28;20433;-74
2022/03/13 00:12:55;;;;;;;35.95;22.83;;;0.60;87.80;;;;;;5021563;28;20045;-72
2022/03/13 00:15:34;;;;;;;39.75;24.70;;;0.80;88.10;;;;;;5021784;28;20046;-70
2022/03/13 00:18:02;;;;;;;50.65;27.95;;;0.90;87.80;;;;;;5022922;28;20049;-72
2022/03/13 00:20:32;;;;;;;58.75;30.80;;;0.60;90.70;;;;;;5022761;28;20408;-71
2022/03/13 00:22:59;;;;;;;72.05;33.25;;;0.20;95.10;;;;;;5021566;28;20034;-72
2022/03/13 00:25:27;;;;;;;56.88;31.70;;;0.30;96.10;;;;;;5016415;28;20048;-73
2022/03/13 00:27:55;;;;;;;64.05;31.58;;;0.60;96.10;;;;;;5021947;28;20038;-74
2022/03/13 00:30:23;;;;;;;47.53;29.73;;;0.70;95.50;;;;;;5023212;28;20045;-73
2022/03/13 00:32:50;;;;;;;56.22;28.90;;;0.80;94.50;;;;;;5020710;28;20037;-74
2022/03/13 00:35:17;;;;;;;54.13;28.45;;;0.70;94.70;;;;;;5023069;28;20060;-77
2022/03/13 00:37:44;;;;;;;52.90;28.95;;;0.80;95.00;;;;;;5023763;28;20049;-75
2022/03/13 00:40:13;;;;;;;57.33;29.92;;;0.60;95.20;;;;;;5021906;28;20049;-75
2022/03/13 00:42:44;;;;;;;49.10;28.92;;;0.60;95.70;;;;;;5021374;28;20045;-72
2022/03/13 00:45:11;;;;;;;42.28;25.80;;;0.60;96.40;;;;;;5022025;28;20469;-75
2022/03/13 00:47:38;;;;;;;54.65;27.85;;;0.60;95.80;;;;;;5024073;28;20041;-74
2022/03/13 00:50:07;;;;;;;54.58;27.90;;;0.40;95.50;;;;;;5020792;28;20034;-74
2022/03/13 00:52:34;;;;;;;51.63;28.08;;;0.40;96.50;;;;;;5022456;28;20047;-76
2022/03/13 00:55:01;;;;;;;48.45;27.50;;;0.50;96.80;;;;;;5020836;28;20046;-77
2022/03/13 00:57:29;;;;;;;48.40;27.00;;;0.60;96.50;;;;;;5023605;28;20037;-74
2022/03/13 00:59:56;;;;;;;43.78;25.80;;;0.30;94.80;;;;;;5025139;28;20127;-75
2022/03/13 01:02:23;;;;;;;47.65;26.02;;;0.20;96.60;;;;;;5015115;28;20808;-76
2022/03/13 01:04:51;;;;;;;51.22;26.70;;;0.40;96.70;;;;;;5033000;28;20037;-75
2022/03/13 01:07:18;;;;;;;46.03;26.15;;;0.50;96.50;;;;;;5032024;28;20045;-77
2022/03/13 01:09:45;;;;;;;40.97;25.92;;;0.50;96.50;;;;;;5033047;28;20042;-77
2022/03/13 01:12:13;;;;;;;46.30;24.60;;;0.50;96.60;;;;;;5033105;28;20545;-75
2022/03/13 01:14:40;;;;;;;66.68;26.52;;;0.50;96.50;;;;;;5032318;28;20045;-73
2022/03/13 01:17:08;;;;;;;44.88;27.23;;;0.60;96.40;;;;;;5033161;28;20053;-76
2022/03/13 01:19:37;;;;;;;46.60;26.27;;;0.40;97.00;;;;;;5032798;28;20041;-76
2022/03/13 01:22:06;;;;;;;48.17;26.50;;;0.40;97.30;;;;;;5024907;28;20049;-74
2022/03/13 01:24:43;;;;;;;49.58;25.60;;;0.50;97.60;;;;;;5011920;28;20482;-75
2022/03/13 01:27:12;;;;;;;45.30;24.75;;;0.50;97.50;;;;;;4995058;28;20416;-76
2022/03/13 01:29:40;;;;;;;43.40;25.48;;;0.50;98.00;;;;;;5011726;28;20041;-77
2022/03/13 01:32:10;;;;;;;41.67;24.85;;;0.30;99.80;;;;;;5012079;28;20045;-72
2022/03/13 01:34:44;;;;;;;42.90;25.88;;;0.10;99.90;;;;;;5012084;28;20057;-73
2022/03/13 01:37:15;;;;;;;46.40;24.88;;;0.10;99.90;;;;;;5026203;28;20046;-78
2022/03/13 01:39:42;;;;;;;46.55;24.65;;;0.00;99.90;;;;;;5031244;28;20489;-74
2022/03/13 01:42:10;;;;;;;40.88;24.35;;;0.00;99.90;;;;;;5031781;28;20042;-78
2022/03/13 01:44:37;;;;;;;41.67;23.75;;;-0.10;99.90;;;;;;5031473;28;20405;-71
2022/03/13 01:47:05;;;;;;;44.67;24.38;;;0.10;99.90;;;;;;5031595;28;20041;-72
2022/03/13 01:49:33;;;;;;;37.58;22.00;;;0.10;99.90;;;;;;5030971;28;20164;-71
2022/03/13 01:52:01;;;;;;;36.75;18.70;;;0.20;99.90;;;;;;5031177;28;20052;-72
2022/03/13 01:54:32;;;;;;;30.98;17.42;;;0.00;98.60;;;;;;5030948;28;20043;-70
2022/03/13 01:57:00;;;;;;;25.80;16.17;;;-0.40;97.40;;;;;;5031126;28;20042;-76
2022/03/13 01:59:31;;;;;;;18.10;12.32;;;-0.50;97.80;;;;;;5030803;28;20045;-74
2022/03/13 02:01:59;;;;;;;23.23;15.55;;;-0.60;96.30;;;;;;5031143;28;20401;-73
2022/03/13 02:04:28;;;;;;;38.08;22.38;;;-0.10;96.60;;;;;;5030537;28;20045;-74
2022/03/13 02:06:58;;;;;;;36.05;20.05;;;0.00;98.00;;;;;;5031022;28;20473;-72
2022/03/13 02:09:27;;;;;;;27.40;16.77;;;0.00;97.70;;;;;;5030712;28;20128;-73
2022/03/13 02:11:55;;;;;;;32.00;17.50;;;0.10;97.00;;;;;;5030162;28;20045;-71
2022/03/13 02:14:23;;;;;;;27.05;17.35;;;0.00;97.00;;;;;;5030497;28;20167;-72
2022/03/13 02:16:52;;;;;;;35.10;20.85;;;0.00;96.90;;;;;;5030886;28;20413;-71
2022/03/13 02:19:21;;;;;;;38.08;22.45;;;0.00;97.60;;;;;;5030579;28;20049;-76
2022/03/13 02:21:51;;;;;;;38.30;22.23;;;-0.30;98.70;;;;;;5030841;28;20057;-73
2022/03/13 02:24:26;;;;;;;42.70;23.50;;;-0.40;99.90;;;;;;5013146;28;20082;-74
2022/03/13 02:27:05;;;;;;;44.20;23.38;;;-0.40;99.90;;;;;;5030573;28;20037;-72
2022/03/13 02:29:33;;;;;;;40.65;23.38;;;-0.50;99.90;;;;;;5030312;28;20057;-70
2022/03/13 02:32:01;;;;;;;35.13;22.95;;;-0.90;99.90;;;;;;5030540;28;20037;-70
2022/03/13 02:34:29;;;;;;;37.60;21.20;;;-1.00;99.90;;;;;;5030571;28;20041;-75
2022/03/13 02:37:01;;;;;;;44.20;22.13;;;-0.80;99.90;;;;;;5030842;28;20057;-72
2022/03/13 02:39:35;;;;;;;36.05;21.52;;;-0.80;99.90;;;;;;5013455;28;20477;-74
2022/03/13 02:42:05;;;;;;;33.28;20.80;;;-1.00;99.90;;;;;;5030858;28;20045;-73
2022/03/13 02:44:34;;;;;;;34.47;18.70;;;-1.10;99.90;;;;;;5030626;28;20053;-71
2022/03/13 02:47:05;;;;;;;34.45;18.45;;;-0.80;99.90;;;;;;5030726;28;20057;-74
2022/03/13 02:49:32;;;;;;;;;;;-0.60;99.90;;;;;;5012831;28;20508;-76
2022/03/13 02:52:04;;;;;;;29.80;16.13;;;-0.60;99.90;;;;;;5030356;28;19929;-73
2022/03/13 02:54:32;;;;;;;23.85;16.10;;;-0.50;99.90;;;;;;5030283;28;20030;-76
2022/03/13 02:57:00;;;;;;;25.90;15.75;;;-0.50;99.90;;;;;;5030450;28;20393;-75
2022/03/13 02:59:28;;;;;;;23.90;14.68;;;-0.60;99.90;;;;;;5030668;28;20056;-76
2022/03/13 03:01:56;;;;;;;20.95;13.90;;;-0.70;99.90;;;;;;5030686;28;20121;-73
2022/03/13 03:04:24;;;;;;;27.02;15.43;;;-0.80;99.90;;;;;;5012617;28;20492;-75
2022/03/13 03:06:54;;;;;;;23.73;14.63;;;-0.80;99.90;;;;;;5030911;28;20397;-73
2022/03/13 03:09:22;;;;;;;22.58;14.32;;;-0.70;99.90;;;;;;5030662;28;20040;-76
2022/03/13 03:11:49;;;;;;;24.35;14.18;;;-0.60;99.90;;;;;;5030562;28;20405;-74
2022/03/13 03:14:17;;;;;;;23.35;13.07;;;-0.50;99.90;;;;;;5012736;28;20045;-74
2022/03/13 03:16:45;;;;;;;27.67;15.48;;;-0.70;99.90;;;;;;5030625;28;20044;-76
2022/03/13 03:19:13;;;;;;;21.95;14.45;;;-0.60;99.90;;;;;;5029787;28;20049;-72
2022/03/13 03:21:41;;;;;;;23.48;14.40;;;-0.70;99.90;;;;;;5013089;28;20048;-75
2022/03/13 03:24:17;;;;;;;23.75;14.93;;;-0.80;99.90;;;;;;5032402;28;20473;-73
2022/03/13 03:26:45;;;;;;;23.00;14.23;;;-0.80;99.90;;;;;;5034279;28;20125;-72
2022/03/13 03:29:13;;;;;;;23.42;14.02;;;-1.10;99.90;;;;;;5033771;28;20392;-72
2022/03/13 03:31:44;;;;;;;23.27;14.98;;;-1.20;99.90;;;;;;5034156;28;20377;-73
2022/03/13 03:34:16;;;;;;;20.77;14.20;;;-1.20;99.90;;;;;;5033820;28;20051;-73
2022/03/13 03:36:50;;;;;;;29.70;15.75;;;-1.40;99.90;;;;;;5033930;28;20041;-73
2022/03/13 03:39:19;;;;;;;19.73;13.25;;;-1.50;99.90;;;;;;5033757;28;20045;-71
2022/03/13 03:41:49;;;;;;;33.03;15.18;;;-1.30;99.90;;;;;;5016728;28;20405;-72
2022/03/13 03:44:17;;;;;;;22.55;14.30;;;-1.30;99.90;;;;;;5033389;28;20048;-74
2022/03/13 03:46:46;;;;;;;23.17;15.75;;;-1.10;99.90;;;;;;5016588;28;20052;-75
2022/03/13 03:49:14;;;;;;;24.58;14.43;;;-1.20;99.90;;;;;;5033328;28;20392;-73
2022/03/13 03:51:43;;;;;;;24.58;15.30;;;-1.20;99.90;;;;;;5033644;28;20051;-72
2022/03/13 03:54:11;;;;;;;22.55;14.02;;;-1.20;99.90;;;;;;5033453;28;20038;-75
2022/03/13 03:56:39;;;;;;;29.17;14.18;;;-1.30;99.90;;;;;;5033401;28;20053;-74
2022/03/13 03:59:07;;;;;;;24.55;14.40;;;-1.30;99.90;;;;;;5032986;28;20077;-73
2022/03/13 04:01:39;;;;;;;23.40;14.88;;;-1.20;99.90;;;;;;5033718;28;20520;-75
2022/03/13 04:04:14;;;;;;;22.27;14.00;;;-1.20;99.90;;;;;;5015284;28;20153;-74
2022/03/13 04:06:41;;;;;;;21.88;14.07;;;-1.50;99.90;;;;;;5033824;28;20050;-72
2022/03/13 04:09:10;;;;;;;25.60;14.48;;;-1.50;99.90;;;;;;5033706;28;20434;-77
2022/03/13 04:11:38;;;;;;;23.33;14.20;;;-1.40;99.90;;;;;;5033477;28;20470;-74
2022/03/13 04:14:06;;;;;;;22.05;14.38;;;-1.40;99.90;;;;;;5033527;28;20705;-76
2022/03/13 04:16:34;;;;;;;28.05;15.05;;;-1.20;99.90;;;;;;5033727;28;20046;-73
2022/03/13 04:19:01;;;;;;;22.08;13.30;;;-1.30;99.90;;;;;;5033108;28;20080;-76
2022/03/13 04:21:29;;;;;;;23.75;14.20;;;-1.60;99.90;;;;;;5033466;28;20041;-74
2022/03/13 04:23:56;;;;;;;23.70;14.52;;;-1.90;99.90;;;;;;5015453;28;20484;-73
2022/03/13 04:26:25;;;;;;;32.63;15.13;;;-2.20;99.90;;;;;;5033014;28;20045;-76
2022/03/13 04:28:52;;;;;;;21.95;13.95;;;-2.20;99.90;;;;;;5032994;28;20033;-73
2022/03/13 04:31:20;;;;;;;21.85;14.90;;;-1.90;99.90;;;;;;5032667;28;20037;-73
2022/03/13 04:33:48;;;;;;;19.70;13.15;;;-2.10;99.90;;;;;;5032965;28;20083;-74
2022/03/13 04:36:25;;;;;;;23.25;14.50;;;-1.80;99.90;;;;;;5032453;28;20117;-79
2022/03/13 04:38:52;;;;;;;24.10;14.50;;;-2.10;99.90;;;;;;5015328;28;20089;-72
2022/03/13 04:41:20;;;;;;;21.52;12.73;;;-1.90;99.90;;;;;;5033267;28;20038;-76
2022/03/13 04:43:47;;;;;;;20.80;13.10;;;-2.00;99.90;;;;;;5015073;28;20079;-75
2022/03/13 04:46:15;;;;;;;21.00;13.63;;;-1.70;99.90;;;;;;5032937;28;20037;-76
2022/03/13 04:48:43;;;;;;;22.60;13.77;;;-1.60;99.90;;;;;;5032784;28;20053;-73
2022/03/13 04:51:10;;;;;;;24.75;14.02;;;-1.70;99.90;;;;;;5031961;28;20041;-76
2022/03/13 04:53:38;;;;;;;18.92;13.15;;;-1.60;99.90;;;;;;5032080;28;20050;-74
2022/03/13 04:56:06;;;;;;;23.90;14.05;;;-1.60;99.90;;;;;;5032384;28;20044;-72
2022/03/13 04:58:34;;;;;;;25.42;14.00;;;-1.50;99.90;;;;;;5032168;28;20409;-75
2022/03/13 05:01:01;;;;;;;21.83;13.82;;;-1.70;99.90;;;;;;5032682;28;20045;-76
2022/03/13 05:03:33;;;;;;;24.35;13.68;;;-1.70;99.90;;;;;;4998810;28;20508;-74
2022/03/13 05:06:03;;;;;;;21.30;12.95;;;-1.80;99.90;;;;;;5032318;28;20049;-74
2022/03/13 05:08:35;;;;;;;28.38;15.32;;;-1.80;99.90;;;;;;5032025;28;20041;-74
2022/03/13 05:11:05;;;;;;;25.17;15.07;;;-2.00;99.90;;;;;;5032513;28;20048;-73
2022/03/13 05:13:34;;;;;;;23.38;15.00;;;-2.00;99.90;;;;;;5032423;28;20041;-74
2022/03/13 05:16:01;;;;;;;28.85;14.85;;;-1.80;99.90;;;;;;5032305;28;20046;-75
2022/03/13 05:18:29;;;;;;;24.25;14.70;;;-1.80;99.90;;;;;;5032032;28;20394;-71
2022/03/13 05:20:56;;;;;;;26.75;15.15;;;-1.90;99.90;;;;;;5014543;28;20045;-73
2022/03/13 05:23:24;;;;;;;18.67;12.77;;;-2.00;99.90;;;;;;5032486;28;20124;-72
2022/03/13 05:25:51;;;;;;;25.63;14.23;;;-1.80;99.90;;;;;;5031941;28;20500;-74
2022/03/13 05:28:19;;;;;;;26.55;15.00;;;-1.60;99.90;;;;;;5031572;28;20042;-74
2022/03/13 05:30:46;;;;;;;25.60;14.70;;;-1.40;99.90;;;;;;5031961;28;20441;-76
2022/03/13 05:33:14;;;;;;;26.85;14.00;;;-1.60;99.90;;;;;;5032252;28;20048;-74
2022/03/13 05:35:41;;;;;;;25.13;15.25;;;-1.50;99.90;;;;;;5032053;28;20042;-76
2022/03/13 05:38:08;;;;;;;28.27;15.05;;;-1.90;99.90;;;;;;5032262;28;20509;-79
2022/03/13 05:40:36;;;;;;;32.35;16.10;;;-1.90;99.90;;;;;;5031837;28;20408;-77
2022/03/13 05:43:04;;;;;;;30.70;16.40;;;-1.60;99.90;;;;;;5031612;28;20045;-73
2022/03/13 05:45:32;;;;;;;30.60;18.25;;;-1.70;99.90;;;;;;5031688;28;20059;-78
2022/03/13 05:48:06;;;;;;;30.52;18.80;;;-2.00;99.90;;;;;;5030327;28;20401;-73
2022/03/13 05:50:33;;;;;;;28.45;17.02;;;-1.80;99.90;;;;;;5031335;28;20420;-72
2022/03/13 05:53:01;;;;;;;29.98;16.67;;;-1.70;99.90;;;;;;5031780;28;20049;-74
2022/03/13 05:55:28;;;;;;;32.50;17.98;;;-1.40;99.90;;;;;;5031160;28;20049;-74
2022/03/13 05:57:57;;;;;;;26.92;16.38;;;-1.30;99.90;;;;;;5030693;28;20044;-74
2022/03/13 06:00:25;;;;;;;36.55;17.75;;;-1.20;99.90;;;;;;5031301;28;20041;-74
2022/03/13 06:02:53;;;;;;;24.98;15.43;;;-1.00;99.90;;;;;;5013939;28;20041;-74
2022/03/13 06:05:21;;;;;;;22.50;14.73;;;-0.80;99.90;;;;;;5031332;28;20052;-73
2022/03/13 06:07:49;;;;;;;31.60;13.63;;;-0.90;99.90;;;;;;5031250;28;20060;-73
2022/03/13 06:10:22;;;;;;;22.88;14.02;;;-0.90;99.90;;;;;;5014746;28;20056;-75
2022/03/13 06:12:49;;;;;;;22.63;14.30;;;-0.70;99.90;;;;;;5030618;28;20815;-72
2022/03/13 06:15:17;;;;;;;21.85;13.75;;;-0.70;99.90;;;;;;5013832;28;20051;-74
2022/03/13 06:17:47;;;;;;;25.77;14.45;;;-0.80;99.90;;;;;;5030859;28;20053;-73
2022/03/13 06:20:16;;;;;;;22.42;15.32;;;-0.70;99.90;;;;;;5031204;28;20041;-74
2022/03/13 06:22:47;;;;;;;26.88;14.00;;;-0.80;99.90;;;;;;5013895;28;20041;-72
2022/03/13 06:25:15;;;;;;;22.77;13.88;;;-0.60;99.90;;;;;;5030977;28;20038;-72
2022/03/13 06:27:43;;;;;;;25.00;13.38;;;-0.50;99.90;;;;;;5031483;28;20497;-77
2022/03/13 06:30:16;;;;;;;22.17;13.13;;;-0.40;99.90;;;;;;5030768;28;20045;-78
2022/03/13 06:32:46;;;;;;;17.58;11.98;;;-0.20;99.90;;;;;;5031148;28;20045;-77
2022/03/13 06:35:15;;;;;;;25.02;13.43;;;-0.20;99.00;;;;;;5031077;28;20118;-77
2022/03/13 06:37:43;;;;;;;23.13;13.80;;;-0.40;98.70;;;;;;5031324;28;20039;-78
2022/03/13 06:40:16;;;;;;;25.65;12.95;;;-0.30;98.60;;;;;;5030865;28;20397;-80
2022/03/13 06:42:43;;;;;;;21.13;14.02;;;-0.40;98.90;;;;;;5030730;28;20069;-71
2022/03/13 06:45:11;;;;;;;24.58;13.95;;;-0.20;98.40;;;;;;5030257;28;20038;-73
2022/03/13 06:47:38;;;;;;;24.67;15.13;;;-0.10;98.30;;;;;;5030518;28;20053;-76
2022/03/13 06:50:08;;;;;;;29.35;15.35;;;-0.10;98.40;;;;;;5030642;28;20095;-71
2022/03/13 06:52:35;;;;;;;26.83;15.10;;;0.00;98.20;;;;;;5030178;28;20041;-72
2022/03/13 06:55:06;;;;;;;29.83;15.38;;;-0.10;98.20;;;;;;5030697;28;20040;-73
2022/03/13 06:57:33;;;;;;;25.90;14.10;;;0.20;98.20;;;;;;5030166;28;20042;-74
2022/03/13 07:00:02;;;;;;;24.80;14.88;;;-0.20;98.10;;;;;;5034324;28;20156;-71
2022/03/13 07:02:29;;;;;;;24.30;14.60;;;0.10;98.30;;;;;;5034654;28;20499;-73
2022/03/13 07:04:56;;;;;;;23.40;14.32;;;0.20;97.80;;;;;;5034732;28;20397;-77
2022/03/13 07:07:24;;;;;;;24.58;14.85;;;0.20;97.70;;;;;;5034804;28;20381;-73
2022/03/13 07:09:52;;;;;;;23.80;14.18;;;0.20;97.00;;;;;;5034567;28;20043;-76
2022/03/13 07:12:20;;;;;;;21.17;13.95;;;0.10;96.70;;;;;;5034200;28;20060;-72
2022/03/13 07:14:48;;;;;;;23.45;15.40;;;-0.10;96.70;;;;;;5033767;28;20046;-74
2022/03/13 07:17:16;;;;;;;21.98;13.93;;;0.20;96.80;;;;;;5034360;28;20124;-72
2022/03/13 07:19:44;;;;;;;21.23;13.75;;;0.10;95.60;;;;;;5034399;28;20104;-75
2022/03/13 07:22:13;;;;;;;24.10;13.30;;;0.10;95.10;;;;;;5034053;28;20124;-72
2022/03/13 07:24:41;;;;;;;23.38;13.63;;;0.10;95.40;;;;;;5033699;28;20094;-73
2022/03/13 07:27:09;;;;;;;22.77;14.45;;;0.40;95.70;;;;;;5034338;28;20477;-74
2022/03/13 07:29:36;;;;;;;18.88;13.63;;;0.70;95.10;;;;;;5016532;28;20132;-74
2022/03/13 07:32:04;;;;;;;22.92;13.35;;;0.60;93.70;;;;;;5034411;28;20405;-75
2022/03/13 07:34:32;;;;;;;21.65;12.35;;;0.50;95.00;;;;;;5016858;28;20409;-79
2022/03/13 07:36:59;;;;;;;18.42;13.00;;;0.60;94.60;;;;;;5033906;28;20049;-74
2022/03/13 07:39:30;;;;;;;22.73;14.25;;;0.70;94.90;;;;;;5016697;28;20099;-72
2022/03/13 07:41:57;;;;;;;25.88;14.25;;;0.70;93.40;;;;;;5034050;28;20040;-70
2022/03/13 07:44:24;;;;;;;20.83;13.77;;;0.90;93.20;;;;;;5034049;28;20053;-72
2022/03/13 07:46:52;;;;;;;23.90;13.82;;;1.00;92.10;;;;;;5033686;28;20034;-71
2022/03/13 07:49:19;;;;;;;18.75;13.60;;;1.10;92.10;;;;;;5033603;28;20092;-72
2022/03/13 07:51:47;;;;;;;23.95;14.38;;;1.10;92.20;;;;;;5015534;28;20574;-72
2022/03/13 07:54:15;;;;;;;19.98;14.18;;;1.30;92.50;;;;;;5032837;28;20045;-73
2022/03/13 07:56:42;;;;;;;21.30;13.82;;;1.50;91.90;;;;;;5033224;28;20389;-74
2022/03/13 07:59:09;;;;;;;22.25;13.50;;;1.60;91.20;;;;;;5033109;28;20053;-75
2022/03/13 08:01:37;;;;;;;24.05;14.00;;;1.70;90.70;;;;;;5033711;28;20040;-75
2022/03/13 08:04:05;;;;;;;17.90;12.63;;;1.50;90.00;;;;;;5033339;28;20049;-80
2022/03/13 08:06:34;;;;;;;18.58;13.32;;;1.60;88.10;;;;;;5033925;28;20041;-78
2022/03/13 08:09:03;;;;;;;23.50;13.50;;;1.60;86.30;;;;;;5033345;28;20049;-75
2022/03/13 08:11:34;;;;;;;19.83;13.35;;;1.80;86.40;;;;;;5031632;28;20048;-75
2022/03/13 08:14:07;;;;;;;21.33;12.13;;;2.00;85.30;;;;;;5033085;28;20049;-73
2022/03/13 08:16:35;;;;;;;18.10;12.30;;;2.30;84.20;;;;;;5033555;28;20449;-75
2022/03/13 08:19:03;;;;;;;19.90;12.75;;;2.40;82.00;;;;;;5015419;28;20475;-75
2022/03/13 08:21:31;;;;;;;19.35;12.55;;;2.60;80.80;;;;;;5016003;28;20046;-76
2022/03/13 08:23:59;;;;;;;19.40;12.90;;;2.70;78.00;;;;;;5032724;28;20048;-76
2022/03/13 08:26:27;;;;;;;20.00;11.95;;;2.80;75.90;;;;;;5032805;28;20111;-80
2022/03/13 08:28:54;;;;;;;19.58;12.07;;;2.90;75.50;;;;;;5015451;28;20076;-80
2022/03/13 08:31:22;;;;;;;19.30;12.73;;;3.00;75.60;;;;;;5015653;28;20048;-76
2022/03/13 08:33:51;;;;;;;21.13;12.85;;;3.10;75.20;;;;;;5032776;28;20667;-75
2022/03/13 08:36:18;;;;;;;21.48;12.70;;;3.30;74.70;;;;;;5033460;28;20049;-73
2022/03/13 08:38:46;;;;;;;20.15;13.75;;;3.20;73.00;;;;;;5032810;28;20397;-74
2022/03/13 08:41:13;;;;;;;55.55;31.90;;;3.10;71.80;;;;;;5032887;28;20079;-73
2022/03/13 08:43:41;;;;;;;47.63;25.88;;;3.30;73.90;;;;;;5032315;28;20440;-75
2022/03/13 08:46:10;;;;;;;45.88;27.02;;;3.80;74.30;;;;;;5033459;28;20045;-74
2022/03/13 08:48:37;;;;;;;40.40;25.02;;;3.60;72.10;;;;;;5032486;28;20045;-74
2022/03/13 08:51:04;;;;;;;71.38;39.20;;;3.60;71.60;;;;;;5032880;28;20037;-73
2022/03/13 08:53:32;;;;;;;75.88;40.13;;;3.70;72.30;;;;;;5032706;28;20041;-75
2022/03/13 08:55:59;;;;;;;115.93;57.05;;;4.20;74.40;;;;;;5032888;28;20053;-75
2022/03/13 08:58:26;;;;;;;28.23;18.25;;;4.60;72.10;;;;;;5032256;28;20048;-76
2022/03/13 09:00:54;;;;;;;40.83;24.55;;;4.20;70.50;;;;;;5026395;28;20075;-76
2022/03/13 09:03:21;;;;;;;24.40;14.93;;;4.20;72.40;;;;;;5015091;28;20541;-73
2022/03/13 09:05:49;;;;;;;21.13;14.15;;;4.40;69.10;;;;;;4994265;28;20042;-77
2022/03/13 09:08:16;;;;;;;28.92;17.15;;;4.10;68.80;;;;;;5021218;28;20046;-73
2022/03/13 09:10:44;;;;;;;45.67;25.42;;;4.30;70.00;;;;;;5019122;28;20038;-73
2022/03/13 09:13:13;;;;;;;48.85;28.60;;;4.50;68.80;;;;;;5024354;28;20052;-76
2022/03/13 09:15:41;;;;;;;23.98;15.95;;;4.50;68.10;;;;;;5025176;28;20041;-73
2022/03/13 09:18:08;;;;;;;25.05;14.50;;;4.60;67.40;;;;;;5027325;28;20370;-74
2022/03/13 09:20:35;;;;;;;23.77;13.75;;;4.80;67.10;;;;;;5013116;28;20560;-74
2022/03/13 09:23:03;;;;;;;18.00;11.88;;;4.50;66.40;;;;;;5022415;28;20050;-74
2022/03/13 09:25:31;;;;;;;20.58;12.45;;;4.30;64.00;;;;;;4997934;28;20053;-79
2022/03/13 09:28:00;;;;;;;21.55;12.98;;;4.40;65.90;;;;;;5013021;28;20054;-77
2022/03/13 09:30:27;;;;;;;20.58;12.57;;;4.60;66.40;;;;;;5024555;28;20067;-74
2022/03/13 09:32:58;;;;;;;20.00;12.30;;;4.60;65.80;;;;;;5015846;28;20112;-84
2022/03/13 09:35:26;;;;;;;17.88;12.18;;;4.40;65.50;;;;;;5004720;28;20045;-77
2022/03/13 09:37:57;;;;;;;19.85;12.57;;;4.50;65.00;;;;;;4989421;28;20045;-76
2022/03/13 09:40:26;;;;;;;15.80;10.77;;;4.80;64.70;;;;;;5022013;28;20030;-76
2022/03/13 09:42:54;;;;;;;20.35;11.35;;;4.70;65.90;;;;;;4986861;28;20128;-75
2022/03/13 09:45:23;;;;;;;16.23;10.25;;;4.90;64.30;;;;;;5020437;28;20069;-77
2022/03/13 09:47:52;;;;;;;15.15;10.57;;;5.00;63.70;;;;;;5020032;28;20045;-75
2022/03/13 09:50:21;;;;;;;17.42;9.85;;;5.00;63.30;;;;;;5019886;28;20046;-72
2022/03/13 09:52:50;;;;;;;14.98;10.48;;;5.10;62.60;;;;;;5024933;28;20041;-72
2022/03/13 09:55:17;;;;;;;14.15;10.25;;;5.10;61.80;;;;;;5014368;28;20043;-72
2022/03/13 09:57:48;;;;;;;11.60;8.45;;;5.60;61.60;;;;;;5014464;28;20124;-74
2022/03/13 10:00:20;;;;;;;13.57;8.35;;;6.00;60.00;;;;;;5013790;28;20043;-71
2022/03/13 10:02:52;;;;;;;18.60;9.05;;;5.90;56.50;;;;;;5032187;28;20393;-75
2022/03/13 10:05:22;;;;;;;15.27;9.95;;;6.00;59.30;;;;;;5031511;28;20120;-70
2022/03/13 10:08:03;;;;;;;12.27;9.13;;;6.50;58.60;;;;;;5014021;28;20462;-74
2022/03/13 10:10:45;;;;;;;14.98;9.75;;;6.60;56.60;;;;;;5027876;28;20037;-72
2022/03/13 10:13:32;;;;;;;13.45;8.82;;;6.10;55.90;;;;;;5012035;28;20401;-74
2022/03/13 10:16:00;;;;;;;13.73;9.23;;;6.30;55.60;;;;;;5011857;28;20053;-72
2022/03/13 10:18:28;;;;;;;23.23;14.32;;;6.20;56.80;;;;;;4994256;28;20639;-72
2022/03/13 10:21:11;;;;;;;38.80;22.13;;;6.40;58.70;;;;;;5011282;28;20041;-77
2022/03/13 10:23:39;;;;;;;45.38;28.10;;;7.10;58.40;;;;;;5020365;28;20088;-74
2022/03/13 10:26:07;;;;;;;36.78;21.50;;;7.50;62.00;;;;;;5020074;28;20079;-75
2022/03/13 10:28:37;;;;;;;21.83;14.85;;;7.80;57.90;;;;;;5002745;28;20046;-76
2022/03/13 10:31:17;;;;;;;17.42;10.02;;;7.70;55.80;;;;;;5003973;28;20043;-75
2022/03/13 10:34:02;;;;;;;14.02;9.32;;;7.70;54.90;;;;;;5021239;28;20120;-73
2022/03/13 10:36:37;;;;;;;13.02;9.55;;;7.50;54.60;;;;;;5018496;28;20038;-75
2022/03/13 10:39:17;;;;;;;13.55;8.77;;;7.40;54.40;;;;;;5028804;28;20128;-76
2022/03/13 10:41:47;;;;;;;11.93;8.25;;;7.40;51.60;;;;;;5031062;28;20052;-75
2022/03/13 10:44:17;;;;;;;14.02;9.30;;;7.50;53.60;;;;;;5018721;28;20050;-74
2022/03/13 10:46:52;;;;;;;12.93;8.63;;;8.10;52.20;;;;;;5011495;28;20464;-79
2022/03/13 10:49:33;;;;;;;17.85;10.80;;;8.50;51.40;;;;;;4992790;28;20654;-72
2022/03/13 10:52:02;;;;;;;13.38;9.82;;;8.20;51.70;;;;;;5026382;28;20045;-72
2022/03/13 10:54:36;;;;;;;16.10;10.20;;;7.60;51.50;;;;;;5035357;28;20107;-71
2022/03/13 10:57:13;;;;;;;16.00;10.10;;;7.50;52.00;;;;;;5010619;28;20308;-71
2022/03/13 10:59:43;;;;;;;21.05;13.98;;;8.10;51.30;;;;;;5021200;28;20037;-70
2022/03/13 11:02:19;;;;;;;16.73;11.85;;;8.10;51.80;;;;;;4985337;28;20057;-71
2022/03/13 11:04:55;;;;;;;19.48;11.95;;;8.70;50.90;;;;;;4989976;28;20049;-70
2022/03/13 11:07:26;;;;;;;15.07;11.35;;;9.20;50.70;;;;;;5027091;28;20103;-72
2022/03/13 11:09:54;;;;;;;14.55;10.40;;;9.20;49.60;;;;;;5023132;28;20505;-71
2022/03/13 11:12:23;;;;;;;16.02;9.82;;;9.30;50.10;;;;;;5008188;28;20117;-72
2022/03/13 11:14:57;;;;;;;14.93;10.25;;;9.20;49.60;;;;;;5024438;28;20096;-70
2022/03/13 11:17:30;;;;;;;15.15;10.00;;;9.50;49.30;;;;;;5023322;28;20436;-73
2022/03/13 11:19:59;;;;;;;14.10;9.63;;;9.20;49.00;;;;;;5027570;28;20046;-71
2022/03/13 11:22:28;;;;;;;15.85;10.07;;;9.20;49.80;;;;;;5049420;28;20069;-69
2022/03/13 11:25:23;;;;;;;14.52;9.85;;;9.90;49.20;;;;;;5029527;28;20045;-72
2022/03/13 11:27:52;;;;;;;14.07;9.63;;;9.60;48.60;;;;;;5042668;28;20132;-76
2022/03/13 11:30:32;;;;;;;15.32;10.23;;;9.30;49.60;;;;;;5016573;28;20045;-75
2022/03/13 11:33:03;;;;;;;;;;;9.50;48.70;;;;;;5021559;28;20050;-71
2022/03/13 11:35:34;;;;;;;18.40;11.60;;;9.90;50.10;;;;;;5023943;28;20016;-72
2022/03/13 11:38:07;;;;;;;14.15;10.35;;;10.60;48.70;;;;;;5019505;28;20578;-72
2022/03/13 11:40:39;;;;;;;14.80;10.48;;;10.90;47.50;;;;;;5041710;28;20045;-74
2022/03/13 11:43:12;;;;;;;12.13;9.10;;;10.80;46.50;;;;;;5045216;28;20049;-76
2022/03/13 11:45:42;;;;;;;16.73;10.50;;;10.40;46.50;;;;;;5051641;28;20473;-73
2022/03/13 11:48:14;;;;;;;21.08;12.48;;;10.10;47.00;;;;;;5040356;28;20062;-73
2022/03/13 11:50:59;;;;;;;15.98;10.82;;;10.20;46.70;;;;;;5040017;28;20454;-74
2022/03/13 11:53:44;;;;;;;16.17;11.00;;;10.50;45.80;;;;;;5039766;28;20245;-72
2022/03/13 11:56:25;;;;;;;12.57;8.45;;;11.20;46.50;;;;;;5038281;28;20040;-74
2022/03/13 11:59:18;;;;;;;52.97;33.45;;;11.80;44.90;;;;;;5040234;28;20402;-73
2022/03/13 12:01:48;;;;;;;20.30;12.65;;;11.90;46.70;;;;;;5026054;28;20489;-75
2022/03/13 12:04:16;;;;;;;14.57;11.05;;;12.20;48.10;;;;;;5028725;28;20037;-73
2022/03/13 12:06:53;;;;;;;17.10;9.77;;;12.40;44.50;;;;;;5032492;28;20069;-72
2022/03/13 12:09:31;;;;;;;13.07;8.63;;;11.10;44.40;;;;;;5024275;28;20080;-75
2022/03/13 12:12:01;;;;;;;12.68;9.32;;;11.40;44.10;;;;;;5048723;28;20548;-74
2022/03/13 12:14:48;;;;;;;;;;;11.60;43.30;;;;;;5045455;28;20396;-75
2022/03/13 12:17:16;;;;;;;15.32;9.57;;;11.40;43.60;;;;;;5035045;28;19983;-72
2022/03/13 12:19:56;;;;;;;16.50;10.73;;;12.20;43.90;;;;;;5029805;28;20038;-71
2022/03/13 12:22:27;;;;;;;16.20;11.07;;;12.40;42.80;;;;;;4997429;28;20052;-72
2022/03/13 12:24:59;;;;;;;15.77;10.30;;;12.80;42.80;;;;;;5039703;28;20408;-71
2022/03/13 12:27:27;;;;;;;14.50;10.18;;;13.20;41.60;;;;;;5049164;28;20566;-71
2022/03/13 12:29:58;;;;;;;15.20;10.88;;;13.40;41.60;;;;;;5049088;28;20072;-70
2022/03/13 12:32:34;;;;;;;12.10;8.68;;;13.70;41.10;;;;;;5033673;28;20040;-69
2022/03/13 12:35:03;;;;;;;14.18;9.82;;;13.40;39.80;;;;;;5031418;28;20123;-71
2022/03/13 12:37:32;;;;;;;14.98;10.57;;;14.20;40.00;;;;;;5037111;28;20048;-72
2022/03/13 12:40:02;;;;;;;14.35;9.80;;;14.70;38.80;;;;;;5029706;28;20120;-72
2022/03/13 12:42:34;;;;;;;14.98;10.73;;;14.30;38.60;;;;;;5030849;28;20041;-70
2022/03/13 12:45:10;;;;;;;13.93;9.48;;;14.90;38.50;;;;;;5011078;28;20042;-71